sensor_id;sensor_type;location;lat;lon;timestamp;pressure;altitude;pressure_sealevel;temperature;humidity
60246;BME280;46107;53.356;-1.524;2023-04-01T00:02:13;97332.35;;;4.13;98.17
60246;BME280;46107;53.356;-1.524;2023-04-01T00:04:40;97336.98;;;4.89;95.41
60246;BME280;46107;53.356;-1.524;2023-04-01T00:07:07;97334.63;;;4.89;94.20
60246;BME280;46107;53.356;-1.524;2023-04-01T00:09:35;97339.10;;;4.46;95.11
60246;BME280;46107;53.356;-1.524;2023-04-01T00:12:03;97342.87;;;5.12;93.17
60246;BME280;46107;53.356;-1.524;2023-04-01T00:14:31;97347.18;;;4.41;92.33
60246;BME280;46107;53.356;-1.524;2023-04-01T00:16:59;97350.19;;;5.96;87.28
60246;BME280;46107;53.356;-1.524;2023-04-01T00:19:27;97352.49;;;5.68;87.53
60246;BME280;46107;53.356;-1.524;2023-04-01T00:21:55;97358.84;;;6.16;84.85
60246;BME280;46107;53.356;-1.524;2023-04-01T00:24:23;97356.62;;;5.09;88.25
60246;BME280;46107;53.356;-1.524;2023-04-01T00:26:50;97353.52;;;5.58;86.51
60246;BME280;46107;53.356;-1.524;2023-04-01T00:29:18;97353.51;;;4.65;88.92
60246;BME280;46107;53.356;-1.524;2023-04-01T00:31:46;97362.96;;;4.11;91.95
60246;BME280;46107;53.356;-1.524;2023-04-01T00:34:13;97365.68;;;5.22;88.26
60246;BME280;46107;53.356;-1.524;2023-04-01T00:36:41;97366.66;;;5.41;87.33
60246;BME280;46107;53.356;-1.524;2023-04-01T00:39:08;97371.12;;;4.68;89.83
60246;BME280;46107;53.356;-1.524;2023-04-01T00:41:36;97373.24;;;5.08;89.11
60246;BME280;46107;53.356;-1.524;2023-04-01T00:44:21;97373.21;;;3.87;92.22
60246;BME280;46107;53.356;-1.524;2023-04-01T00:46:50;97379.06;;;4.60;91.01
60246;BME280;46107;53.356;-1.524;2023-04-01T00:49:20;97386.23;;;4.30;92.34
60246;BME280;46107;53.356;-1.524;2023-04-01T00:51:53;97386.57;;;4.48;92.24
60246;BME280;46107;53.356;-1.524;2023-04-01T00:54:24;97385.83;;;3.57;95.86
60246;BME280;46107;53.356;-1.524;2023-04-01T00:56:55;97383.52;;;3.85;95.55
60246;BME280;46107;53.356;-1.524;2023-04-01T00:59:26;97387.57;;;4.50;92.89
60246;BME280;46107;53.356;-1.524;2023-04-01T01:01:54;97386.37;;;5.38;88.37
60246;BME280;46107;53.356;-1.524;2023-04-01T01:04:23;97383.74;;;5.05;90.48
60246;BME280;46107;53.356;-1.524;2023-04-01T01:06:57;97382.06;;;4.71;91.04
60246;BME280;46107;53.356;-1.524;2023-04-01T01:09:38;97385.30;;;5.04;86.68
60246;BME280;46107;53.356;-1.524;2023-04-01T01:12:11;97384.71;;;4.66;90.11
60246;BME280;46107;53.356;-1.524;2023-04-01T01:14:51;97386.83;;;3.48;95.15
60246;BME280;46107;53.356;-1.524;2023-04-01T01:17:27;97390.57;;;4.43;91.63
60246;BME280;46107;53.356;-1.524;2023-04-01T01:20:16;97396.17;;;4.58;93.17
60246;BME280;46107;53.356;-1.524;2023-04-01T01:23:03;97393.75;;;4.49;90.56
60246;BME280;46107;53.356;-1.524;2023-04-01T01:25:40;97397.06;;;3.92;92.85
60246;BME280;46107;53.356;-1.524;2023-04-01T01:28:26;97405.22;;;4.62;90.42
60246;BME280;46107;53.356;-1.524;2023-04-01T01:31:02;97409.17;;;4.79;90.34
60246;BME280;46107;53.356;-1.524;2023-04-01T01:33:44;97411.88;;;4.26;88.88
60246;BME280;46107;53.356;-1.524;2023-04-01T01:36:16;97414.78;;;4.67;89.13
60246;BME280;46107;53.356;-1.524;2023-04-01T01:38:46;97417.34;;;3.88;94.35
60246;BME280;46107;53.356;-1.524;2023-04-01T01:41:16;97421.15;;;3.76;93.77
60246;BME280;46107;53.356;-1.524;2023-04-01T01:43:47;97419.65;;;4.55;90.59
60246;BME280;46107;53.356;-1.524;2023-04-01T01:46:19;97421.99;;;4.59;92.27
60246;BME280;46107;53.356;-1.524;2023-04-01T01:48:48;97422.37;;;4.51;91.92
60246;BME280;46107;53.356;-1.524;2023-04-01T01:51:18;97424.30;;;4.57;89.07
60246;BME280;46107;53.356;-1.524;2023-04-01T01:53:47;97428.93;;;3.57;93.18
60246;BME280;46107;53.356;-1.524;2023-04-01T01:56:14;97429.77;;;3.85;91.51
60246;BME280;46107;53.356;-1.524;2023-04-01T01:58:45;97438.78;;;4.41;90.82
60246;BME280;46107;53.356;-1.524;2023-04-01T02:01:16;97442.65;;;4.96;89.15
60246;BME280;46107;53.356;-1.524;2023-04-01T02:03:45;97442.99;;;4.10;91.22
60246;BME280;46107;53.356;-1.524;2023-04-01T02:06:17;97448.70;;;4.85;87.41
60246;BME280;46107;53.356;-1.524;2023-04-01T02:08:49;97449.88;;;4.54;88.33
60246;BME280;46107;53.356;-1.524;2023-04-01T02:11:21;97458.54;;;3.53;91.52
60246;BME280;46107;53.356;-1.524;2023-04-01T02:13:53;97461.79;;;4.24;88.18
60246;BME280;46107;53.356;-1.524;2023-04-01T02:16:26;97465.82;;;4.33;89.61
60246;BME280;46107;53.356;-1.524;2023-04-01T02:18:56;97473.30;;;3.46;92.16
60246;BME280;46107;53.356;-1.524;2023-04-01T02:21:30;97464.77;;;4.32;87.93
60246;BME280;46107;53.356;-1.524;2023-04-01T02:24:00;97468.34;;;5.17;85.24
60246;BME280;46107;53.356;-1.524;2023-04-01T02:26:30;97476.98;;;4.95;86.27
60246;BME280;46107;53.356;-1.524;2023-04-01T02:28:59;97481.40;;;5.32;83.49
60246;BME280;46107;53.356;-1.524;2023-04-01T02:31:29;97481.56;;;4.76;84.37
60246;BME280;46107;53.356;-1.524;2023-04-01T02:33:57;97480.49;;;4.44;86.25
60246;BME280;46107;53.356;-1.524;2023-04-01T02:36:25;97481.42;;;3.24;89.53
60246;BME280;46107;53.356;-1.524;2023-04-01T02:38:54;97479.01;;;3.92;89.26
60246;BME280;46107;53.356;-1.524;2023-04-01T02:41:22;97488.31;;;4.07;87.16
60246;BME280;46107;53.356;-1.524;2023-04-01T02:43:50;97489.59;;;3.91;88.19
60246;BME280;46107;53.356;-1.524;2023-04-01T02:46:17;97494.07;;;5.19;82.20
60246;BME280;46107;53.356;-1.524;2023-04-01T02:48:45;97495.86;;;4.50;84.71
60246;BME280;46107;53.356;-1.524;2023-04-01T02:51:12;97499.01;;;4.21;84.19
60246;BME280;46107;53.356;-1.524;2023-04-01T02:53:40;97507.04;;;3.79;86.65
60246;BME280;46107;53.356;-1.524;2023-04-01T02:56:07;97507.63;;;4.41;85.16
60246;BME280;46107;53.356;-1.524;2023-04-01T02:58:35;97513.97;;;4.57;84.35
60246;BME280;46107;53.356;-1.524;2023-04-01T03:01:03;97515.19;;;4.63;82.51
60246;BME280;46107;53.356;-1.524;2023-04-01T03:03:31;97510.41;;;4.77;82.93
60246;BME280;46107;53.356;-1.524;2023-04-01T03:05:57;97511.69;;;5.05;80.32
60246;BME280;46107;53.356;-1.524;2023-04-01T03:08:25;97517.81;;;5.46;79.70
60246;BME280;46107;53.356;-1.524;2023-04-01T03:10:53;97522.56;;;5.03;79.56
60246;BME280;46107;53.356;-1.524;2023-04-01T03:13:21;97521.58;;;4.20;83.44
60246;BME280;46107;53.356;-1.524;2023-04-01T03:15:47;97528.45;;;3.44;86.07
60246;BME280;46107;53.356;-1.524;2023-04-01T03:18:16;97525.03;;;3.71;86.34
60246;BME280;46107;53.356;-1.524;2023-04-01T03:20:43;97522.06;;;3.77;88.04
60246;BME280;46107;53.356;-1.524;2023-04-01T03:23:11;97526.03;;;3.16;92.80
60246;BME280;46107;53.356;-1.524;2023-04-01T03:25:39;97532.00;;;3.57;89.36
60246;BME280;46107;53.356;-1.524;2023-04-01T03:28:06;97531.13;;;3.22;91.45
60246;BME280;46107;53.356;-1.524;2023-04-01T03:30:34;97526.98;;;4.15;86.63
60246;BME280;46107;53.356;-1.524;2023-04-01T03:33:02;97529.24;;;3.59;89.75
60246;BME280;46107;53.356;-1.524;2023-04-01T03:35:30;97531.95;;;2.89;90.40
60246;BME280;46107;53.356;-1.524;2023-04-01T03:37:57;97534.41;;;3.55;88.21
60246;BME280;46107;53.356;-1.524;2023-04-01T03:40:25;97541.16;;;3.25;88.86
60246;BME280;46107;53.356;-1.524;2023-04-01T03:42:52;97543.86;;;3.59;86.19
60246;BME280;46107;53.356;-1.524;2023-04-01T03:45:20;97545.76;;;3.79;88.58
60246;BME280;46107;53.356;-1.524;2023-04-01T03:47:48;97553.80;;;4.27;84.51
60246;BME280;46107;53.356;-1.524;2023-04-01T03:50:16;97549.76;;;4.66;82.13
60246;BME280;46107;53.356;-1.524;2023-04-01T03:52:43;97554.10;;;4.03;83.44
60246;BME280;46107;53.356;-1.524;2023-04-01T03:55:11;97560.77;;;3.67;84.98
60246;BME280;46107;53.356;-1.524;2023-04-01T03:57:38;97564.07;;;4.41;81.51
60246;BME280;46107;53.356;-1.524;2023-04-01T04:00:07;97565.25;;;3.71;83.42
60246;BME280;46107;53.356;-1.524;2023-04-01T04:02:35;97569.30;;;4.01;84.25
60246;BME280;46107;53.356;-1.524;2023-04-01T04:05:03;97572.68;;;2.75;88.41
60246;BME280;46107;53.356;-1.524;2023-04-01T04:07:30;97576.18;;;4.72;82.85
60246;BME280;46107;53.356;-1.524;2023-04-01T04:09:58;97583.71;;;4.28;83.44
60246;BME280;46107;53.356;-1.524;2023-04-01T04:12:26;97581.84;;;4.82;79.94
60246;BME280;46107;53.356;-1.524;2023-04-01T04:14:54;97590.44;;;3.97;81.94
60246;BME280;46107;53.356;-1.524;2023-04-01T04:17:22;97586.86;;;5.52;78.34
60246;BME280;46107;53.356;-1.524;2023-04-01T08:41:23;97903.85;;;4.30;82.42
60246;BME280;46107;53.356;-1.524;2023-04-01T08:44:09;97904.39;;;3.92;81.78
60246;BME280;46107;53.356;-1.524;2023-04-01T08:46:56;97908.35;;;4.39;79.86
60246;BME280;46107;53.356;-1.524;2023-04-01T08:49:41;97913.86;;;4.65;78.22
60246;BME280;46107;53.356;-1.524;2023-04-01T08:52:27;97916.12;;;4.18;78.44
60246;BME280;46107;53.356;-1.524;2023-04-01T08:55:22;97923.62;;;4.42;76.80
60246;BME280;46107;53.356;-1.524;2023-04-01T08:58:04;97925.83;;;4.08;76.65
60246;BME280;46107;53.356;-1.524;2023-04-01T09:00:43;97934.27;;;3.97;75.02
60246;BME280;46107;53.356;-1.524;2023-04-01T09:03:27;97934.19;;;4.34;76.30
60246;BME280;46107;53.356;-1.524;2023-04-01T09:06:48;97934.63;;;4.75;74.89
60246;BME280;46107;53.356;-1.524;2023-04-01T09:11:39;97939.48;;;4.96;76.79
60246;BME280;46107;53.356;-1.524;2023-04-01T09:14:41;97942.48;;;3.20;82.25
60246;BME280;46107;53.356;-1.524;2023-04-01T09:17:30;97947.23;;;3.98;80.43
60246;BME280;46107;53.356;-1.524;2023-04-01T09:20:17;97950.81;;;4.14;80.15
60246;BME280;46107;53.356;-1.524;2023-04-01T09:23:05;97955.63;;;5.55;74.64
60246;BME280;46107;53.356;-1.524;2023-04-01T09:25:49;97953.00;;;4.24;76.67
60246;BME280;46107;53.356;-1.524;2023-04-01T09:28:28;97956.32;;;5.00;73.68
60246;BME280;46107;53.356;-1.524;2023-04-01T09:31:11;97957.68;;;4.98;74.33
60246;BME280;46107;53.356;-1.524;2023-04-01T09:34:12;97964.29;;;5.57;73.33
60246;BME280;46107;53.356;-1.524;2023-04-01T09:36:45;97966.69;;;5.48;72.02
60246;BME280;46107;53.356;-1.524;2023-04-01T09:39:28;97965.48;;;6.14;74.95
60246;BME280;46107;53.356;-1.524;2023-04-01T09:42:09;97964.86;;;5.64;69.55
60246;BME280;46107;53.356;-1.524;2023-04-01T09:44:46;97969.22;;;5.99;69.27
60246;BME280;46107;53.356;-1.524;2023-04-01T09:47:27;97966.02;;;4.41;70.79
60246;BME280;46107;53.356;-1.524;2023-04-01T09:50:35;97978.26;;;5.79;68.14
60246;BME280;46107;53.356;-1.524;2023-04-01T09:53:11;97980.76;;;4.57;73.38
60246;BME280;46107;53.356;-1.524;2023-04-01T09:58:33;97994.98;;;6.55;67.84
60246;BME280;46107;53.356;-1.524;2023-04-01T10:01:20;98004.66;;;5.60;70.20
60246;BME280;46107;53.356;-1.524;2023-04-01T10:04:25;98001.50;;;4.95;66.88
60246;BME280;46107;53.356;-1.524;2023-04-01T10:12:21;98017.76;;;6.02;68.96
60246;BME280;46107;53.356;-1.524;2023-04-01T10:15:23;98021.21;;;5.84;67.60
60246;BME280;46107;53.356;-1.524;2023-04-01T10:18:11;98026.27;;;6.22;64.99
60246;BME280;46107;53.356;-1.524;2023-04-01T10:21:16;98027.33;;;5.24;65.03
60246;BME280;46107;53.356;-1.524;2023-04-01T10:24:02;98035.54;;;6.07;62.36
60246;BME280;46107;53.356;-1.524;2023-04-01T10:26:51;98038.68;;;6.11;60.39
60246;BME280;46107;53.356;-1.524;2023-04-01T10:30:27;98033.78;;;7.22;57.22
60246;BME280;46107;53.356;-1.524;2023-04-01T10:34:19;98045.53;;;6.05;60.91
60246;BME280;46107;53.356;-1.524;2023-04-01T10:36:54;98044.17;;;5.47;63.44
60246;BME280;46107;53.356;-1.524;2023-04-01T10:44:19;98051.08;;;5.94;65.02
60246;BME280;46107;53.356;-1.524;2023-04-01T10:48:42;98067.44;;;5.93;65.20
60246;BME280;46107;53.356;-1.524;2023-04-01T10:51:29;98070.91;;;5.41;64.52
60246;BME280;46107;53.356;-1.524;2023-04-01T10:54:30;98073.93;;;5.39;65.70
60246;BME280;46107;53.356;-1.524;2023-04-01T10:57:13;98075.22;;;6.00;64.56
60246;BME280;46107;53.356;-1.524;2023-04-01T11:00:35;98076.19;;;5.27;66.85
60246;BME280;46107;53.356;-1.524;2023-04-01T11:04:40;98083.15;;;6.53;63.53
60246;BME280;46107;53.356;-1.524;2023-04-01T11:07:28;98085.92;;;5.51;64.79
60246;BME280;46107;53.356;-1.524;2023-04-01T11:10:42;98092.48;;;5.62;62.96
60246;BME280;46107;53.356;-1.524;2023-04-01T11:14:58;98097.38;;;6.73;61.35
60246;BME280;46107;53.356;-1.524;2023-04-01T11:17:47;98098.45;;;5.65;65.52
60246;BME280;46107;53.356;-1.524;2023-04-01T11:20:34;98106.19;;;5.72;65.49
60246;BME280;46107;53.356;-1.524;2023-04-01T11:23:22;98112.47;;;6.19;64.25
60246;BME280;46107;53.356;-1.524;2023-04-01T11:26:02;98115.18;;;5.65;64.64
60246;BME280;46107;53.356;-1.524;2023-04-01T11:30:04;98120.38;;;6.60;66.47
60246;BME280;46107;53.356;-1.524;2023-04-01T11:32:45;98125.75;;;6.26;61.28
60246;BME280;46107;53.356;-1.524;2023-04-01T11:35:31;98132.92;;;6.33;64.04
60246;BME280;46107;53.356;-1.524;2023-04-01T11:38:09;98137.42;;;5.74;65.72
60246;BME280;46107;53.356;-1.524;2023-04-01T11:40:47;98138.94;;;5.92;63.52
60246;BME280;46107;53.356;-1.524;2023-04-01T11:43:24;98149.74;;;6.29;62.66
60246;BME280;46107;53.356;-1.524;2023-04-01T11:46:01;98152.01;;;6.67;62.44
60246;BME280;46107;53.356;-1.524;2023-04-01T11:48:45;98154.31;;;6.99;60.52
60246;BME280;46107;53.356;-1.524;2023-04-01T11:51:30;98157.82;;;6.58;60.56
60246;BME280;46107;53.356;-1.524;2023-04-01T11:54:10;98159.40;;;6.02;61.97
60246;BME280;46107;53.356;-1.524;2023-04-01T11:56:55;98160.23;;;6.15;60.77
60246;BME280;46107;53.356;-1.524;2023-04-01T11:59:49;98171.10;;;4.90;63.35
60246;BME280;46107;53.356;-1.524;2023-04-01T12:02:29;98170.62;;;5.89;62.82
60246;BME280;46107;53.356;-1.524;2023-04-01T12:05:19;98169.11;;;5.47;64.72
60246;BME280;46107;53.356;-1.524;2023-04-01T12:08:00;98171.77;;;6.14;61.26
60246;BME280;46107;53.356;-1.524;2023-04-01T12:10:38;98179.31;;;6.25;60.79
60246;BME280;46107;53.356;-1.524;2023-04-01T12:13:14;98182.44;;;5.78;63.49
60246;BME280;46107;53.356;-1.524;2023-04-01T12:15:58;98187.97;;;5.90;64.43
60246;BME280;46107;53.356;-1.524;2023-04-01T12:18:35;98191.47;;;6.57;62.04
60246;BME280;46107;53.356;-1.524;2023-04-01T12:21:14;98195.43;;;6.57;59.90
60246;BME280;46107;53.356;-1.524;2023-04-01T12:24:00;98197.52;;;6.49;61.43
60246;BME280;46107;53.356;-1.524;2023-04-01T12:26:47;98206.56;;;6.71;59.36
60246;BME280;46107;53.356;-1.524;2023-04-01T12:29:47;98211.83;;;6.62;60.85
60246;BME280;46107;53.356;-1.524;2023-04-01T12:32:25;98212.97;;;6.58;62.42
60246;BME280;46107;53.356;-1.524;2023-04-01T12:35:17;98216.19;;;6.30;64.50
60246;BME280;46107;53.356;-1.524;2023-04-01T12:37:55;98222.67;;;6.85;61.81
60246;BME280;46107;53.356;-1.524;2023-04-01T12:40:45;98223.46;;;7.46;60.14
60246;BME280;46107;53.356;-1.524;2023-04-01T12:43:29;98224.47;;;6.77;61.08
60246;BME280;46107;53.356;-1.524;2023-04-01T12:46:09;98227.75;;;5.89;65.52
60246;BME280;46107;53.356;-1.524;2023-04-01T12:49:10;98228.25;;;7.08;60.94
60246;BME280;46107;53.356;-1.524;2023-04-01T12:51:54;98233.30;;;6.33;63.19
60246;BME280;46107;53.356;-1.524;2023-04-01T12:54:44;98236.46;;;5.36;67.22
60246;BME280;46107;53.356;-1.524;2023-04-01T12:57:31;98241.51;;;6.20;65.61
60246;BME280;46107;53.356;-1.524;2023-04-01T13:00:19;98243.68;;;6.04;65.87
60246;BME280;46107;53.356;-1.524;2023-04-01T13:03:05;98247.13;;;6.60;62.53
60246;BME280;46107;53.356;-1.524;2023-04-01T13:05:54;98250.60;;;6.39;63.41
60246;BME280;46107;53.356;-1.524;2023-04-01T13:08:38;98252.88;;;6.72;63.04
60246;BME280;46107;53.356;-1.524;2023-04-01T13:11:17;98258.54;;;6.50;65.78
60246;BME280;46107;53.356;-1.524;2023-04-01T13:14:36;98258.46;;;7.00;64.63
60246;BME280;46107;53.356;-1.524;2023-04-01T13:17:15;98266.03;;;5.77;70.27
60246;BME280;46107;53.356;-1.524;2023-04-01T13:19:50;98270.72;;;5.81;65.20
60246;BME280;46107;53.356;-1.524;2023-04-01T13:22:26;98269.73;;;7.12;63.89
60246;BME280;46107;53.356;-1.524;2023-04-01T13:25:04;98276.41;;;6.56;64.48
60246;BME280;46107;53.356;-1.524;2023-04-01T13:27:38;98278.05;;;6.49;63.38
60246;BME280;46107;53.356;-1.524;2023-04-01T13:30:22;98281.79;;;6.20;62.48
60246;BME280;46107;53.356;-1.524;2023-04-01T13:32:57;98287.17;;;6.29;64.13
60246;BME280;46107;53.356;-1.524;2023-04-01T13:35:36;98287.78;;;6.34;63.51
60246;BME280;46107;53.356;-1.524;2023-04-01T13:38:22;98289.52;;;6.73;63.87
60246;BME280;46107;53.356;-1.524;2023-04-01T13:40:59;98296.88;;;6.41;60.40
60246;BME280;46107;53.356;-1.524;2023-04-01T13:43:35;98299.97;;;6.01;64.35
60246;BME280;46107;53.356;-1.524;2023-04-01T13:46:48;98305.70;;;6.60;63.38
60246;BME280;46107;53.356;-1.524;2023-04-01T13:49:35;98315.98;;;6.40;61.42
60246;BME280;46107;53.356;-1.524;2023-04-01T13:52:16;98319.69;;;5.96;65.08
60246;BME280;46107;53.356;-1.524;2023-04-01T13:55:00;98323.09;;;6.76;61.93
60246;BME280;46107;53.356;-1.524;2023-04-01T13:57:47;98327.46;;;7.03;59.69
60246;BME280;46107;53.356;-1.524;2023-04-01T14:00:29;98333.76;;;6.18;63.25
60246;BME280;46107;53.356;-1.524;2023-04-01T14:03:17;98334.68;;;7.02;61.17
60246;BME280;46107;53.356;-1.524;2023-04-01T14:06:02;98338.77;;;6.36;62.03
60246;BME280;46107;53.356;-1.524;2023-04-01T14:08:47;98341.36;;;7.22;60.54
60246;BME280;46107;53.356;-1.524;2023-04-01T14:11:27;98344.57;;;7.67;59.90
60246;BME280;46107;53.356;-1.524;2023-04-01T14:14:06;98349.02;;;6.14;62.78
60246;BME280;46107;53.356;-1.524;2023-04-01T14:16:55;98352.67;;;6.06;64.55
60246;BME280;46107;53.356;-1.524;2023-04-01T14:19:38;98349.64;;;7.42;58.09
60246;BME280;46107;53.356;-1.524;2023-04-01T14:22:21;98353.13;;;6.51;61.97
60246;BME280;46107;53.356;-1.524;2023-04-01T14:25:04;98357.59;;;5.87;63.34
60246;BME280;46107;53.356;-1.524;2023-04-01T14:27:44;98361.79;;;5.97;65.10
60246;BME280;46107;53.356;-1.524;2023-04-01T14:30:27;98365.63;;;6.19;65.14
60246;BME280;46107;53.356;-1.524;2023-04-01T14:33:04;98373.34;;;7.38;64.56
60246;BME280;46107;53.356;-1.524;2023-04-01T14:35:38;98375.11;;;6.89;61.91
60246;BME280;46107;53.356;-1.524;2023-04-01T14:38:24;98379.55;;;6.89;64.23
60246;BME280;46107;53.356;-1.524;2023-04-01T14:40:56;98381.50;;;8.00;61.63
60246;BME280;46107;53.356;-1.524;2023-04-01T14:43:43;98387.51;;;6.73;64.81
60246;BME280;46107;53.356;-1.524;2023-04-01T14:48:05;98389.64;;;6.72;67.00
60246;BME280;46107;53.356;-1.524;2023-04-01T14:50:43;98398.87;;;6.06;67.91
60246;BME280;46107;53.356;-1.524;2023-04-01T14:53:16;98401.01;;;6.31;68.08
60246;BME280;46107;53.356;-1.524;2023-04-01T14:55:54;98405.03;;;6.80;69.05
60246;BME280;46107;53.356;-1.524;2023-04-01T14:58:23;98409.24;;;6.41;67.62
60246;BME280;46107;53.356;-1.524;2023-04-01T15:01:05;98411.88;;;7.06;67.09
60246;BME280;46107;53.356;-1.524;2023-04-01T15:03:40;98417.09;;;6.80;67.43
60246;BME280;46107;53.356;-1.524;2023-04-01T15:06:32;98422.83;;;6.60;68.16
60246;BME280;46107;53.356;-1.524;2023-04-01T15:09:06;98426.20;;;5.85;71.87
60246;BME280;46107;53.356;-1.524;2023-04-01T15:11:48;98430.74;;;6.18;70.03
60246;BME280;46107;53.356;-1.524;2023-04-01T15:15:38;98439.56;;;6.05;70.08
60246;BME280;46107;53.356;-1.524;2023-04-01T15:18:13;98442.82;;;6.39;69.58
60246;BME280;46107;53.356;-1.524;2023-04-01T15:20:55;98449.56;;;7.53;67.56
60246;BME280;46107;53.356;-1.524;2023-04-01T15:23:38;98449.45;;;6.45;70.20
60246;BME280;46107;53.356;-1.524;2023-04-01T15:26:23;98458.69;;;6.80;68.94
60246;BME280;46107;53.356;-1.524;2023-04-01T15:29:06;98464.78;;;6.40;69.86
60246;BME280;46107;53.356;-1.524;2023-04-01T15:31:39;98471.10;;;7.38;68.76
60246;BME280;46107;53.356;-1.524;2023-04-01T15:34:21;98473.34;;;7.39;68.40
60246;BME280;46107;53.356;-1.524;2023-04-01T15:36:57;98479.05;;;6.87;68.29
60246;BME280;46107;53.356;-1.524;2023-04-01T15:39:38;98480.83;;;7.00;69.20
60246;BME280;46107;53.356;-1.524;2023-04-01T15:42:19;98489.87;;;6.96;72.70
60246;BME280;46107;53.356;-1.524;2023-04-01T15:44:59;98495.88;;;6.51;69.69
60246;BME280;46107;53.356;-1.524;2023-04-01T15:47:35;98496.91;;;6.86;71.81
60246;BME280;46107;53.356;-1.524;2023-04-01T15:50:26;98502.46;;;6.71;70.90
60246;BME280;46107;53.356;-1.524;2023-04-01T15:53:07;98509.11;;;6.53;71.73
60246;BME280;46107;53.356;-1.524;2023-04-01T15:55:42;98513.21;;;6.76;73.60
60246;BME280;46107;53.356;-1.524;2023-04-01T15:58:32;98516.19;;;7.21;69.84
60246;BME280;46107;53.356;-1.524;2023-04-01T16:01:15;98521.56;;;6.36;74.52
60246;BME280;46107;53.356;-1.524;2023-04-01T16:03:54;98523.86;;;6.96;73.37
60246;BME280;46107;53.356;-1.524;2023-04-01T16:06:51;98530.79;;;6.19;74.22
60246;BME280;46107;53.356;-1.524;2023-04-01T16:09:43;98533.64;;;7.25;71.04
60246;BME280;46107;53.356;-1.524;2023-04-01T16:12:19;98539.36;;;6.83;72.86
60246;BME280;46107;53.356;-1.524;2023-04-01T16:15:10;98545.84;;;6.29;73.74
60246;BME280;46107;53.356;-1.524;2023-04-01T16:18:04;98556.39;;;6.24;74.53
60246;BME280;46107;53.356;-1.524;2023-04-01T16:20:45;98564.94;;;6.14;76.07
60246;BME280;46107;53.356;-1.524;2023-04-01T16:23:22;98561.47;;;6.87;73.96
60246;BME280;46107;53.356;-1.524;2023-04-01T16:25:57;98567.62;;;6.56;72.96
60246;BME280;46107;53.356;-1.524;2023-04-01T16:28:32;98569.43;;;6.99;71.53
60246;BME280;46107;53.356;-1.524;2023-04-01T16:31:07;98580.08;;;5.77;75.96
60246;BME280;46107;53.356;-1.524;2023-04-01T16:33:44;98589.82;;;5.34;76.96
60246;BME280;46107;53.356;-1.524;2023-04-01T16:36:22;98591.74;;;6.01;75.71
60246;BME280;46107;53.356;-1.524;2023-04-01T16:39:02;98597.84;;;5.64;76.63
60246;BME280;46107;53.356;-1.524;2023-04-01T16:41:34;98598.24;;;5.50;78.02
60246;BME280;46107;53.356;-1.524;2023-04-01T16:44:13;98602.82;;;5.74;75.90
60246;BME280;46107;53.356;-1.524;2023-04-01T16:46:47;98600.52;;;6.96;72.98
60246;BME280;46107;53.356;-1.524;2023-04-01T16:49:25;98610.50;;;6.45;72.68
60246;BME280;46107;53.356;-1.524;2023-04-01T16:52:12;98612.69;;;6.65;71.86
60246;BME280;46107;53.356;-1.524;2023-04-01T16:54:46;98614.78;;;6.36;73.37
60246;BME280;46107;53.356;-1.524;2023-04-01T16:57:20;98616.96;;;6.66;73.66
60246;BME280;46107;53.356;-1.524;2023-04-01T16:59:57;98618.28;;;5.40;75.21
60246;BME280;46107;53.356;-1.524;2023-04-01T17:02:27;98620.53;;;6.24;75.88
60246;BME280;46107;53.356;-1.524;2023-04-01T17:05:00;98623.31;;;6.07;74.21
60246;BME280;46107;53.356;-1.524;2023-04-01T17:07:40;98630.46;;;6.26;74.33
60246;BME280;46107;53.356;-1.524;2023-04-01T17:10:24;98634.66;;;5.68;74.97
60246;BME280;46107;53.356;-1.524;2023-04-01T17:13:15;98640.37;;;5.59;77.03
60246;BME280;46107;53.356;-1.524;2023-04-01T17:15:54;98649.22;;;5.66;77.41
60246;BME280;46107;53.356;-1.524;2023-04-01T17:18:34;98652.74;;;5.45;80.18
60246;BME280;46107;53.356;-1.524;2023-04-01T17:21:09;98656.48;;;5.25;82.11
60246;BME280;46107;53.356;-1.524;2023-04-01T17:23:45;98665.94;;;4.80;85.53
60246;BME280;46107;53.356;-1.524;2023-04-01T17:26:23;98673.63;;;6.23;80.34
60246;BME280;46107;53.356;-1.524;2023-04-01T17:28:58;98678.31;;;5.81;79.87
60246;BME280;46107;53.356;-1.524;2023-04-01T17:31:41;98681.29;;;5.13;82.43
60246;BME280;46107;53.356;-1.524;2023-04-01T17:34:24;98690.00;;;5.21;86.05
60246;BME280;46107;53.356;-1.524;2023-04-01T17:37:04;98691.51;;;5.36;84.93
60246;BME280;46107;53.356;-1.524;2023-04-01T17:39:46;98694.75;;;4.98;87.73
60246;BME280;46107;53.356;-1.524;2023-04-01T17:42:20;98702.15;;;5.94;82.76
60246;BME280;46107;53.356;-1.524;2023-04-01T17:44:55;98707.15;;;5.96;82.31
60246;BME280;46107;53.356;-1.524;2023-04-01T17:47:33;98711.24;;;5.55;81.97
60246;BME280;46107;53.356;-1.524;2023-04-01T17:50:16;98716.86;;;5.62;82.32
60246;BME280;46107;53.356;-1.524;2023-04-01T17:52:58;98722.73;;;5.71;81.68
60246;BME280;46107;53.356;-1.524;2023-04-01T17:56:09;98729.33;;;5.37;82.70
60246;BME280;46107;53.356;-1.524;2023-04-01T17:58:45;98735.26;;;5.44;82.73
60246;BME280;46107;53.356;-1.524;2023-04-01T18:01:21;98737.65;;;6.06;79.11
60246;BME280;46107;53.356;-1.524;2023-04-01T18:04:31;98746.36;;;5.89;81.51
60246;BME280;46107;53.356;-1.524;2023-04-01T18:08:24;98751.10;;;5.99;80.72
60246;BME280;46107;53.356;-1.524;2023-04-01T18:11:00;98761.69;;;4.47;87.64
60246;BME280;46107;53.356;-1.524;2023-04-01T18:13:50;98769.05;;;5.38;83.68
60246;BME280;46107;53.356;-1.524;2023-04-01T18:16:32;98771.09;;;6.50;79.76
60246;BME280;46107;53.356;-1.524;2023-04-01T18:19:13;98777.10;;;5.30;81.51
60246;BME280;46107;53.356;-1.524;2023-04-01T18:21:46;98780.50;;;6.02;79.62
60246;BME280;46107;53.356;-1.524;2023-04-01T18:24:21;98789.46;;;5.41;81.40
60246;BME280;46107;53.356;-1.524;2023-04-01T18:27:02;98794.82;;;5.46;83.36
60246;BME280;46107;53.356;-1.524;2023-04-01T18:29:37;98799.03;;;4.93;87.73
60246;BME280;46107;53.356;-1.524;2023-04-01T18:32:14;98803.66;;;4.94;87.55
60246;BME280;46107;53.356;-1.524;2023-04-01T18:34:53;98807.45;;;4.95;86.14
60246;BME280;46107;53.356;-1.524;2023-04-01T18:37:26;98821.82;;;4.80;87.41
60246;BME280;46107;53.356;-1.524;2023-04-01T18:40:02;98823.37;;;5.14;87.28
60246;BME280;46107;53.356;-1.524;2023-04-01T18:42:43;98829.75;;;5.80;84.89
60246;BME280;46107;53.356;-1.524;2023-04-01T18:45:20;98834.07;;;5.79;82.80
60246;BME280;46107;53.356;-1.524;2023-04-01T18:47:57;98843.76;;;5.62;83.50
60246;BME280;46107;53.356;-1.524;2023-04-01T18:50:30;98850.65;;;5.72;85.00